Time;durP1;ratioP1;P1;durP2;ratioP2;P2;SDS_P1;SDS_P2;PMS_P1;PMS_P2;Temp;Humidity;BMP_temperature;BMP_pressure;BME280_temperature;BME280_humidity;BME280_pressure;Samples;Min_cycle;Max_cycle;Signal;HPM_P1;HPM_P2
2023/05/26 00:02:13;;;;;;;7.20;5.60;;;;;;;13.89;71.22;100007.06;437447;1250;140721;-63
2023/05/26 00:12:20;;;;;;;7.50;5.50;;;;;;;13.82;71.82;100010.90;437163;1253;140573;-65
2023/05/26 00:22:25;;;;;;;6.80;6.10;;;;;;;13.71;72.50;100019.23;437639;1248;139726;-59
2023/05/26 00:32:31;;;;;;;9.30;6.50;;;;;;;13.63;73.04;100021.58;437374;1248;139807;-62
2023/05/26 00:42:37;;;;;;;7.60;6.80;;;;;;;13.55;73.32;100028.44;436932;1251;140701;-60
2023/05/26 00:52:44;;;;;;;7.30;6.60;;;;;;;13.47;73.85;100021.23;437534;1251;142651;-59
2023/05/26 01:02:53;;;;;;;13.10;8.30;;;;;;;13.47;74.43;100021.77;437287;1253;139114;-59
2023/05/26 01:13:02;;;;;;;9.80;6.50;;;;;;;13.68;74.77;100028.25;437122;1249;140233;-61
2023/05/26 01:23:47;;;;;;;9.70;6.80;;;;;;;13.84;74.47;100023.59;437037;1252;140209;-59
2023/05/26 01:33:53;;;;;;;8.70;6.20;;;;;;;13.91;74.49;100018.05;437572;1250;140063;-61
2023/05/26 01:44:08;;;;;;;8.10;6.60;;;;;;;13.90;74.43;100012.30;437321;1253;139270;-63
2023/05/26 01:54:21;;;;;;;8.00;6.50;;;;;;;13.90;74.57;100012.70;437380;1251;139657;-60
2023/05/26 02:04:26;;;;;;;7.70;5.80;;;;;;;13.93;74.65;100011.41;437188;1250;140942;-60
2023/05/26 02:14:32;;;;;;;8.60;5.90;;;;;;;13.94;74.62;100014.81;437267;1253;139110;-59
2023/05/26 02:24:38;;;;;;;6.80;5.30;;;;;;;13.94;74.57;100023.24;436873;1251;139899;-61
2023/05/26 02:34:44;;;;;;;10.10;5.70;;;;;;;13.88;74.39;100019.11;436902;1251;140662;-59
2023/05/26 02:44:50;;;;;;;7.90;6.00;;;;;;;13.84;74.11;100020.60;436462;1251;139848;-60
2023/05/26 02:54:56;;;;;;;7.10;4.70;;;;;;;13.84;73.78;100022.39;436657;1251;140910;-60
2023/05/26 03:05:01;;;;;;;11.40;5.30;;;;;;;13.89;73.22;100024.89;436749;1250;139513;-61
2023/05/26 03:15:11;;;;;;;6.80;4.00;;;;;;;13.90;72.43;100027.92;436741;1252;140199;-60
2023/05/26 03:25:17;;;;;;;4.80;4.10;;;;;;;13.89;71.80;100038.23;437240;1253;139775;-59
2023/05/26 03:35:23;;;;;;;6.40;3.90;;;;;;;13.91;71.45;100046.91;438021;1250;140447;-60
2023/05/26 03:45:29;;;;;;;5.30;4.00;;;;;;;13.94;70.94;100043.88;436838;1251;139977;-61
2023/05/26 03:55:36;;;;;;;6.20;3.60;;;;;;;14.00;70.52;100053.08;436556;1253;141625;-61
2023/05/26 04:05:42;;;;;;;7.70;4.80;;;;;;;14.06;69.93;100054.08;436568;1250;139642;-59
2023/05/26 04:15:47;;;;;;;6.60;4.10;;;;;;;14.21;69.38;100054.13;436617;1253;139162;-60
2023/05/26 04:25:55;;;;;;;11.40;5.30;;;;;;;14.53;68.84;100065.04;436909;1253;139626;-60
2023/05/26 04:36:01;;;;;;;7.20;5.20;;;;;;;15.40;68.13;100065.63;436525;1251;139161;-61
2023/05/26 04:46:08;;;;;;;10.60;4.40;;;;;;;17.18;64.96;100062.70;436628;1252;140836;-60
2023/05/26 04:56:14;;;;;;;5.70;4.80;;;;;;;20.08;62.38;100064.26;437546;1251;139805;-61
2023/05/26 05:06:20;;;;;;;6.80;3.90;;;;;;;25.40;54.88;100057.41;436897;1252;140069;-60
2023/05/26 05:16:26;;;;;;;7.60;4.10;;;;;;;28.70;47.95;100057.48;436907;1251;138912;-61
2023/05/26 05:26:32;;;;;;;9.10;4.20;;;;;;;31.58;43.14;100053.55;437085;1251;138709;-62
2023/05/26 05:36:37;;;;;;;6.80;4.50;;;;;;;34.35;37.89;100049.46;436566;1251;139084;-62
2023/05/26 05:46:43;;;;;;;13.20;5.10;;;;;;;35.98;34.10;100052.91;436639;1252;139742;-61
2023/05/26 05:56:49;;;;;;;6.80;5.30;;;;;;;36.96;31.24;100058.73;437104;1252;139301;-62
2023/05/26 06:06:55;;;;;;;6.90;4.00;;;;;;;37.81;29.23;100064.00;436974;1253;139100;-62
2023/05/26 06:17:01;;;;;;;8.10;3.30;;;;;;;39.26;26.94;100064.28;436649;1253;138494;-64
2023/05/26 06:27:07;;;;;;;5.30;2.80;;;;;;;40.14;25.36;100068.47;437109;1251;139310;-61
2023/05/26 06:37:13;;;;;;;9.30;3.20;;;;;;;41.43;23.91;100066.86;437454;1249;138298;-61
2023/05/26 06:47:23;;;;;;;5.90;3.30;;;;;;;39.30;23.16;100073.42;436576;1251;138915;-60
2023/05/26 06:57:29;;;;;;;8.60;4.20;;;;;;;37.20;24.16;100085.73;437096;1251;138838;-61
2023/05/26 07:07:35;;;;;;;6.60;2.80;;;;;;;37.17;23.73;100095.34;439795;1252;139658;-60
2023/05/26 07:17:41;;;;;;;8.80;3.50;;;;;;;35.20;24.24;100094.41;435315;1251;158487;-60
2023/05/26 07:27:47;;;;;;;7.40;3.00;;;;;;;33.54;25.46;100096.64;435793;1250;139624;-60
2023/05/26 07:37:53;;;;;;;5.90;3.00;;;;;;;37.45;24.38;100098.23;436184;1253;138729;-60
2023/05/26 07:47:59;;;;;;;7.80;3.50;;;;;;;40.12;22.47;100104.38;436608;1251;140723;-60
2023/05/26 07:58:05;;;;;;;15.50;5.60;;;;;;;37.30;22.90;100113.85;436851;1253;138721;-60
2023/05/26 08:08:11;;;;;;;7.50;3.60;;;;;;;32.03;25.14;100125.05;437128;1248;139137;-61
2023/05/26 08:18:17;;;;;;;15.40;4.90;;;;;;;29.01;27.64;100129.36;437365;1248;139441;-59
2023/05/26 08:28:23;;;;;;;6.00;2.30;;;;;;;28.01;29.59;100123.52;437162;1248;139338;-59
2023/05/26 08:38:29;;;;;;;10.10;3.00;;;;;;;27.18;30.66;100119.98;437315;1248;140318;-60
2023/05/26 08:48:35;;;;;;;9.40;2.80;;;;;;;26.76;31.38;100116.41;438597;1253;138801;-60
2023/05/26 08:58:43;;;;;;;6.10;3.80;;;;;;;26.47;32.06;100110.31;437015;1248;139730;-60
2023/05/26 09:08:49;;;;;;;8.30;3.20;;;;;;;25.69;32.60;100101.09;437413;1253;139719;-61
2023/05/26 09:18:59;;;;;;;7.70;3.70;;;;;;;25.06;33.51;100105.15;436624;1253;139275;-61
2023/05/26 09:29:06;;;;;;;7.50;2.80;;;;;;;25.17;33.41;100100.86;437171;1253;139519;-59
2023/05/26 09:39:13;;;;;;;5.00;2.30;;;;;;;25.32;33.49;100097.63;437099;1251;138748;-61
2023/05/26 09:49:20;;;;;;;6.00;2.80;;;;;;;24.67;33.95;100100.98;437479;1251;139631;-60
2023/05/26 09:59:32;;;;;;;4.60;2.30;;;;;;;24.85;34.28;100097.91;437304;1251;139925;-60
2023/05/26 10:09:39;;;;;;;9.50;3.20;;;;;;;24.07;33.68;100100.31;437017;1251;138649;-60
2023/05/26 10:19:45;;;;;;;4.40;2.20;;;;;;;23.09;33.24;100104.95;436964;1253;138484;-60
2023/05/26 10:30:00;;;;;;;5.90;2.20;;;;;;;23.14;33.05;100098.97;437369;1251;139081;-60
2023/05/26 10:40:25;;;;;;;6.10;3.10;;;;;;;22.62;32.14;100102.15;436617;1251;140084;-61
2023/05/26 10:51:14;;;;;;;6.30;3.10;;;;;;;21.46;31.60;100106.47;437180;1253;139135;-61
2023/05/26 11:01:28;;;;;;;7.70;2.80;;;;;;;21.40;32.32;100109.14;436787;1253;138644;-60
2023/05/26 11:11:38;;;;;;;6.20;1.90;;;;;;;21.61;32.12;100107.64;436801;1251;139563;-61
2023/05/26 11:21:44;;;;;;;5.00;2.50;;;;;;;21.79;30.07;100100.98;436997;1251;138938;-61
2023/05/26 11:31:52;;;;;;;6.30;2.50;;;;;;;21.72;30.41;100098.86;436871;1250;139915;-60
2023/05/26 11:42:09;;;;;;;4.40;2.60;;;;;;;21.62;30.98;100089.68;436541;1250;138932;-61
2023/05/26 11:52:17;;;;;;;8.30;2.30;;;;;;;21.37;31.43;100095.02;436104;1254;139686;-60
2023/05/26 12:02:23;;;;;;;11.00;3.00;;;;;;;21.05;31.86;100096.44;436291;1251;139488;-60
2023/05/26 12:12:32;;;;;;;6.20;2.30;;;;;;;21.24;31.76;100092.84;435892;1253;139210;-59
2023/05/26 12:22:39;;;;;;;5.40;3.20;;;;;;;21.05;31.75;100079.25;436167;1248;140156;-60
2023/05/26 12:32:45;;;;;;;15.20;2.90;;;;;;;20.97;32.06;100073.99;436786;1253;138780;-60
2023/05/26 12:42:51;;;;;;;6.90;2.80;;;;;;;20.53;32.78;100074.75;436412;1253;140580;-59
2023/05/26 12:52:56;;;;;;;6.70;2.60;;;;;;;20.52;33.12;100062.52;437157;1253;140652;-60
2023/05/26 13:03:02;;;;;;;5.40;2.40;;;;;;;20.45;33.22;100057.34;436834;1251;139801;-60
2023/05/26 13:13:08;;;;;;;7.50;2.60;;;;;;;20.24;33.80;100064.52;436736;1251;138792;-59
2023/05/26 13:23:14;;;;;;;7.70;3.80;;;;;;;20.33;34.70;100056.15;436842;1253;139600;-60
2023/05/26 13:33:20;;;;;;;6.00;2.20;;;;;;;20.35;35.61;100053.91;437109;1251;139437;-60
2023/05/26 13:43:26;;;;;;;8.80;2.40;;;;;;;20.27;36.63;100042.23;436734;1251;139094;-60
2023/05/26 13:53:33;;;;;;;7.40;2.50;;;;;;;20.22;36.32;100047.34;436655;1254;139433;-61
2023/05/26 14:03:39;;;;;;;8.40;2.80;;;;;;;20.15;35.71;100047.27;441533;1253;138565;-60
2023/05/26 14:13:45;;;;;;;8.40;2.60;;;;;;;19.91;34.70;100048.98;436929;1251;139091;-60
2023/05/26 14:23:51;;;;;;;7.40;2.90;;;;;;;19.79;34.21;100047.65;436627;1251;139910;-59
2023/05/26 14:33:57;;;;;;;4.90;2.30;;;;;;;19.85;34.05;100041.02;436831;1252;141050;-58
2023/05/26 14:44:03;;;;;;;7.20;2.90;;;;;;;19.92;33.58;100035.73;436781;1253;138637;-62
2023/05/26 14:54:09;;;;;;;5.50;2.50;;;;;;;19.93;33.78;100032.28;436678;1251;140687;-59
2023/05/26 15:04:16;;;;;;;8.70;2.80;;;;;;;19.86;34.07;100028.02;436617;1254;140184;-59
2023/05/26 15:14:22;;;;;;;5.40;2.50;;;;;;;19.78;34.03;100026.48;436799;1253;138558;-60
2023/05/26 15:24:28;;;;;;;5.10;1.90;;;;;;;19.83;33.72;100034.90;436835;1251;138462;-60
2023/05/26 15:34:34;;;;;;;8.40;2.20;;;;;;;19.75;32.92;100030.45;436656;1252;139650;-61
2023/05/26 15:44:40;;;;;;;5.70;2.20;;;;;;;19.64;32.10;100027.77;436604;1251;139169;-62
2023/05/26 15:54:46;;;;;;;5.00;2.40;;;;;;;19.45;31.84;100026.34;436738;1251;139526;-59
2023/05/26 16:04:51;;;;;;;9.20;3.50;;;;;;;19.38;31.82;100030.42;436747;1251;140138;-60
2023/05/26 16:14:57;;;;;;;10.40;2.30;;;;;;;19.16;32.26;100026.92;436551;1251;139105;-59
2023/05/26 16:25:04;;;;;;;4.90;2.60;;;;;;;18.84;33.08;100032.53;436909;1253;139566;-60
2023/05/26 16:35:11;;;;;;;6.10;2.10;;;;;;;18.71;33.73;100023.92;436748;1253;138645;-60
2023/05/26 16:45:17;;;;;;;7.60;2.60;;;;;;;18.72;33.40;100027.17;437081;1253;138608;-58
2023/05/26 16:55:23;;;;;;;4.30;1.80;;;;;;;18.70;32.60;100028.32;437114;1251;139320;-60
2023/05/26 17:05:28;;;;;;;4.70;2.10;;;;;;;18.62;32.50;100038.20;436940;1252;140137;-61
2023/05/26 17:15:35;;;;;;;9.60;2.70;;;;;;;18.55;33.18;100040.98;437113;1251;139247;-60
2023/05/26 17:25:40;;;;;;;6.30;2.50;;;;;;;18.39;33.82;100040.84;436760;1251;140827;-61
2023/05/26 17:35:46;;;;;;;6.90;3.20;;;;;;;18.20;34.68;100051.80;436488;1253;138822;-59
2023/05/26 17:45:52;;;;;;;5.70;3.20;;;;;;;17.99;35.41;100059.50;436712;1252;139066;-60
2023/05/26 17:55:58;;;;;;;9.70;3.40;;;;;;;17.70;35.97;100062.48;436959;1252;138830;-60
2023/05/26 18:06:04;;;;;;;6.50;3.10;;;;;;;17.35;36.47;100064.61;437204;1248;140860;-61
2023/05/26 18:16:10;;;;;;;8.00;3.20;;;;;;;17.27;36.95;100080.33;437152;1253;139809;-60
2023/05/26 18:26:16;;;;;;;7.50;3.80;;;;;;;16.83;37.54;100089.63;437220;1251;138572;-60
2023/05/26 18:36:22;;;;;;;8.40;3.60;;;;;;;16.38;38.38;100096.02;437461;1251;139656;-60
2023/05/26 18:46:27;;;;;;;9.90;3.80;;;;;;;15.94;39.27;100104.41;437142;1251;138888;-60
2023/05/26 18:56:33;;;;;;;9.30;3.40;;;;;;;15.56;40.23;100110.89;437513;1251;140325;-60
2023/05/26 19:06:39;;;;;;;7.50;4.40;;;;;;;15.22;41.01;100121.98;437627;1251;139266;-61
2023/05/26 19:16:47;;;;;;;15.30;4.90;;;;;;;14.92;41.81;100130.98;437024;1251;139047;-60
2023/05/26 19:26:52;;;;;;;11.20;4.10;;;;;;;14.59;42.78;100137.52;437209;1253;140066;-61
2023/05/26 19:37:00;;;;;;;12.80;5.30;;;;;;;14.27;43.82;100140.70;437318;1251;140201;-61
2023/05/26 19:47:06;;;;;;;10.60;4.10;;;;;;;13.94;45.05;100145.27;437248;1248;138806;-60
2023/05/26 19:57:12;;;;;;;10.50;3.30;;;;;;;13.61;45.79;100155.20;437660;1250;139353;-61
2023/05/26 20:07:18;;;;;;;16.00;5.20;;;;;;;13.30;47.05;100164.81;437073;1251;139918;-61
2023/05/26 20:17:23;;;;;;;11.20;5.90;;;;;;;12.90;48.35;100173.68;436933;1253;139215;-60
2023/05/26 20:27:29;;;;;;;11.10;4.60;;;;;;;12.62;48.97;100188.13;437127;1253;140365;-61
2023/05/26 20:37:36;;;;;;;9.50;4.50;;;;;;;12.33;50.42;100193.91;437156;1251;140301;-59
2023/05/26 20:47:43;;;;;;;17.30;6.20;;;;;;;12.04;51.88;100209.73;436969;1252;140153;-61
2023/05/26 20:57:48;;;;;;;10.80;4.10;;;;;;;11.81;52.60;100221.09;436648;1248;140120;-60
2023/05/26 21:07:57;;;;;;;16.90;6.30;;;;;;;11.91;52.68;100238.02;436962;1248;140167;-59
2023/05/26 21:18:03;;;;;;;10.10;4.90;;;;;;;12.28;52.77;100250.60;436947;1251;139264;-60
2023/05/26 21:28:10;;;;;;;16.50;4.30;;;;;;;12.50;53.22;100258.95;437064;1251;139738;-59
2023/05/26 21:38:16;;;;;;;9.00;3.30;;;;;;;12.41;53.87;100279.30;436960;1251;139227;-60
2023/05/26 21:48:22;;;;;;;14.20;3.50;;;;;;;12.24;54.78;100281.88;437141;1251;139423;-59
2023/05/26 21:58:28;;;;;;;12.70;3.80;;;;;;;12.05;55.52;100299.88;437539;1252;139473;-59
2023/05/26 22:08:34;;;;;;;9.80;3.10;;;;;;;11.79;56.22;100303.42;437323;1252;138890;-60
2023/05/26 22:18:40;;;;;;;9.90;3.70;;;;;;;11.54;56.79;100309.91;437669;1251;140305;-58
2023/05/26 22:28:46;;;;;;;9.50;3.60;;;;;;;11.31;57.33;100313.33;437462;1253;139789;-60
2023/05/26 22:38:52;;;;;;;11.50;4.00;;;;;;;11.10;57.23;100315.65;438114;1248;140955;-58
2023/05/26 22:48:58;;;;;;;10.30;4.80;;;;;;;10.90;57.18;100319.71;437566;1251;139766;-59
2023/05/26 22:59:04;;;;;;;11.30;3.50;;;;;;;10.74;57.33;100317.09;437487;1252;142462;-59
2023/05/26 23:09:09;;;;;;;11.80;3.30;;;;;;;10.52;57.78;100326.29;436678;1248;140431;-59
2023/05/26 23:19:15;;;;;;;13.60;3.20;;;;;;;10.33;58.04;100327.54;436832;1253;139734;-59
2023/05/26 23:29:21;;;;;;;7.70;3.00;;;;;;;10.17;58.22;100329.09;437166;1249;139120;-61
2023/05/26 23:39:27;;;;;;;9.20;2.90;;;;;;;9.97;58.62;100331.78;436855;1249;138737;-60
2023/05/26 23:49:32;;;;;;;5.50;2.70;;;;;;;9.83;57.80;100342.08;439189;1250;140077;-59
2023/05/26 23:59:38;;;;;;;10.80;3.40;;;;;;;9.66;57.67;100351.11;437200;1252;139047;-58
